sensor_id;sensor_type;location;lat;lon;timestamp;P1;durP1;ratioP1;P2;durP2;ratioP2
41667;SDS011;27356;50.920;5.350;2023-04-24T00:02:22;9.40;;;6.05;;
41667;SDS011;27356;50.920;5.350;2023-04-24T00:04:50;11.65;;;6.30;;
41667;SDS011;27356;50.920;5.350;2023-04-24T00:07:16;15.68;;;6.78;;
41667;SDS011;27356;50.920;5.350;2023-04-24T00:09:42;17.05;;;6.35;;
41667;SDS011;27356;50.920;5.350;2023-04-24T00:12:08;18.38;;;7.65;;
41667;SDS011;27356;50.920;5.350;2023-04-24T00:14:34;10.30;;;5.78;;
41667;SDS011;27356;50.920;5.350;2023-04-24T00:17:00;12.52;;;7.63;;
41667;SDS011;27356;50.920;5.350;2023-04-24T00:19:27;13.10;;;8.15;;
41667;SDS011;27356;50.920;5.350;2023-04-24T00:21:53;14.43;;;7.13;;
41667;SDS011;27356;50.920;5.350;2023-04-24T00:24:20;13.52;;;7.35;;
41667;SDS011;27356;50.920;5.350;2023-04-24T00:26:45;11.27;;;6.93;;
41667;SDS011;27356;50.920;5.350;2023-04-24T00:29:11;14.38;;;7.32;;
41667;SDS011;27356;50.920;5.350;2023-04-24T00:31:37;14.60;;;7.80;;
41667;SDS011;27356;50.920;5.350;2023-04-24T00:34:03;12.75;;;7.60;;
41667;SDS011;27356;50.920;5.350;2023-04-24T00:36:29;18.88;;;8.48;;
41667;SDS011;27356;50.920;5.350;2023-04-24T00:38:56;12.05;;;7.93;;
41667;SDS011;27356;50.920;5.350;2023-04-24T00:41:22;16.83;;;8.65;;
41667;SDS011;27356;50.920;5.350;2023-04-24T00:43:48;19.95;;;9.07;;
41667;SDS011;27356;50.920;5.350;2023-04-24T00:46:14;14.23;;;9.27;;
41667;SDS011;27356;50.920;5.350;2023-04-24T00:48:41;15.05;;;8.95;;
41667;SDS011;27356;50.920;5.350;2023-04-24T00:51:08;18.73;;;9.60;;
41667;SDS011;27356;50.920;5.350;2023-04-24T00:53:34;18.17;;;8.63;;
41667;SDS011;27356;50.920;5.350;2023-04-24T00:56:00;13.38;;;8.93;;
41667;SDS011;27356;50.920;5.350;2023-04-24T00:58:27;17.15;;;8.68;;
41667;SDS011;27356;50.920;5.350;2023-04-24T01:00:54;18.40;;;9.93;;
41667;SDS011;27356;50.920;5.350;2023-04-24T01:03:24;15.95;;;9.77;;
41667;SDS011;27356;50.920;5.350;2023-04-24T01:05:54;18.80;;;9.40;;
41667;SDS011;27356;50.920;5.350;2023-04-24T01:08:20;13.85;;;9.40;;
41667;SDS011;27356;50.920;5.350;2023-04-24T01:10:53;18.13;;;9.13;;
41667;SDS011;27356;50.920;5.350;2023-04-24T01:13:19;19.77;;;9.50;;
41667;SDS011;27356;50.920;5.350;2023-04-24T01:15:45;17.52;;;9.35;;
41667;SDS011;27356;50.920;5.350;2023-04-24T01:18:12;20.83;;;9.35;;
41667;SDS011;27356;50.920;5.350;2023-04-24T01:20:41;19.95;;;8.65;;
41667;SDS011;27356;50.920;5.350;2023-04-24T01:23:09;17.05;;;9.07;;
41667;SDS011;27356;50.920;5.350;2023-04-24T01:25:35;18.77;;;8.82;;
41667;SDS011;27356;50.920;5.350;2023-04-24T01:28:02;16.45;;;9.38;;
41667;SDS011;27356;50.920;5.350;2023-04-24T01:30:29;15.63;;;8.98;;
41667;SDS011;27356;50.920;5.350;2023-04-24T01:32:56;17.35;;;9.40;;
41667;SDS011;27356;50.920;5.350;2023-04-24T01:35:24;14.25;;;8.10;;
41667;SDS011;27356;50.920;5.350;2023-04-24T01:37:50;24.20;;;9.40;;
41667;SDS011;27356;50.920;5.350;2023-04-24T01:40:16;18.20;;;8.63;;
41667;SDS011;27356;50.920;5.350;2023-04-24T01:42:41;19.40;;;8.73;;
41667;SDS011;27356;50.920;5.350;2023-04-24T01:45:07;15.77;;;8.60;;
41667;SDS011;27356;50.920;5.350;2023-04-24T01:47:36;18.23;;;8.68;;
41667;SDS011;27356;50.920;5.350;2023-04-24T01:50:04;15.07;;;8.60;;
41667;SDS011;27356;50.920;5.350;2023-04-24T01:52:31;17.85;;;9.30;;
41667;SDS011;27356;50.920;5.350;2023-04-24T01:55:01;14.38;;;7.88;;
41667;SDS011;27356;50.920;5.350;2023-04-24T01:57:29;17.13;;;8.40;;
41667;SDS011;27356;50.920;5.350;2023-04-24T01:59:55;24.30;;;8.48;;
41667;SDS011;27356;50.920;5.350;2023-04-24T02:02:21;12.63;;;8.43;;
41667;SDS011;27356;50.920;5.350;2023-04-24T02:04:49;14.48;;;9.02;;
41667;SDS011;27356;50.920;5.350;2023-04-24T02:07:15;15.65;;;8.73;;
41667;SDS011;27356;50.920;5.350;2023-04-24T02:09:41;21.13;;;10.32;;
41667;SDS011;27356;50.920;5.350;2023-04-24T02:12:07;20.35;;;10.40;;
41667;SDS011;27356;50.920;5.350;2023-04-24T02:14:32;20.15;;;10.25;;
41667;SDS011;27356;50.920;5.350;2023-04-24T02:16:58;18.95;;;10.68;;
41667;SDS011;27356;50.920;5.350;2023-04-24T02:19:24;15.88;;;10.10;;
41667;SDS011;27356;50.920;5.350;2023-04-24T02:21:50;16.35;;;10.05;;
41667;SDS011;27356;50.920;5.350;2023-04-24T02:24:15;22.50;;;10.55;;
41667;SDS011;27356;50.920;5.350;2023-04-24T02:26:41;19.25;;;9.88;;
41667;SDS011;27356;50.920;5.350;2023-04-24T02:29:07;15.93;;;9.50;;
41667;SDS011;27356;50.920;5.350;2023-04-24T02:31:32;17.92;;;9.48;;
41667;SDS011;27356;50.920;5.350;2023-04-24T02:33:58;21.95;;;10.13;;
41667;SDS011;27356;50.920;5.350;2023-04-24T02:36:24;17.75;;;9.43;;
41667;SDS011;27356;50.920;5.350;2023-04-24T02:38:50;14.07;;;9.57;;
41667;SDS011;27356;50.920;5.350;2023-04-24T02:41:16;16.67;;;10.15;;
41667;SDS011;27356;50.920;5.350;2023-04-24T02:43:41;15.73;;;9.27;;
41667;SDS011;27356;50.920;5.350;2023-04-24T02:46:07;15.43;;;10.13;;
41667;SDS011;27356;50.920;5.350;2023-04-24T02:48:32;16.20;;;9.23;;
41667;SDS011;27356;50.920;5.350;2023-04-24T02:50:58;15.38;;;8.13;;
41667;SDS011;27356;50.920;5.350;2023-04-24T02:53:24;16.75;;;9.35;;
41667;SDS011;27356;50.920;5.350;2023-04-24T02:55:50;13.55;;;9.55;;
41667;SDS011;27356;50.920;5.350;2023-04-24T02:58:15;19.02;;;9.02;;
41667;SDS011;27356;50.920;5.350;2023-04-24T03:00:42;14.77;;;8.75;;
41667;SDS011;27356;50.920;5.350;2023-04-24T03:03:08;17.23;;;10.18;;
41667;SDS011;27356;50.920;5.350;2023-04-24T03:05:34;16.42;;;9.32;;
41667;SDS011;27356;50.920;5.350;2023-04-24T03:08:00;18.80;;;9.70;;
41667;SDS011;27356;50.920;5.350;2023-04-24T03:10:25;16.25;;;9.98;;
41667;SDS011;27356;50.920;5.350;2023-04-24T03:12:51;12.73;;;9.90;;
41667;SDS011;27356;50.920;5.350;2023-04-24T03:15:17;15.90;;;10.02;;
41667;SDS011;27356;50.920;5.350;2023-04-24T03:17:43;19.92;;;9.90;;
41667;SDS011;27356;50.920;5.350;2023-04-24T03:20:08;15.52;;;9.85;;
41667;SDS011;27356;50.920;5.350;2023-04-24T03:22:34;14.35;;;10.13;;
41667;SDS011;27356;50.920;5.350;2023-04-24T03:25:00;16.90;;;10.23;;
41667;SDS011;27356;50.920;5.350;2023-04-24T03:27:26;14.50;;;9.82;;
41667;SDS011;27356;50.920;5.350;2023-04-24T03:29:52;14.82;;;8.95;;
41667;SDS011;27356;50.920;5.350;2023-04-24T03:32:20;15.70;;;10.05;;
41667;SDS011;27356;50.920;5.350;2023-04-24T03:34:47;15.70;;;9.60;;
41667;SDS011;27356;50.920;5.350;2023-04-24T03:37:12;12.68;;;8.82;;
41667;SDS011;27356;50.920;5.350;2023-04-24T03:39:38;19.80;;;9.95;;
41667;SDS011;27356;50.920;5.350;2023-04-24T03:42:04;13.18;;;9.07;;
41667;SDS011;27356;50.920;5.350;2023-04-24T03:44:29;15.18;;;10.05;;
41667;SDS011;27356;50.920;5.350;2023-04-24T03:46:55;15.82;;;9.52;;
41667;SDS011;27356;50.920;5.350;2023-04-24T03:49:22;13.85;;;8.95;;
41667;SDS011;27356;50.920;5.350;2023-04-24T03:51:48;19.80;;;9.02;;
41667;SDS011;27356;50.920;5.350;2023-04-24T03:54:14;15.80;;;9.57;;
41667;SDS011;27356;50.920;5.350;2023-04-24T03:56:39;17.42;;;8.77;;
41667;SDS011;27356;50.920;5.350;2023-04-24T03:59:05;12.15;;;7.93;;
41667;SDS011;27356;50.920;5.350;2023-04-24T04:01:31;14.18;;;8.20;;
41667;SDS011;27356;50.920;5.350;2023-04-24T04:03:56;15.13;;;9.75;;
41667;SDS011;27356;50.920;5.350;2023-04-24T04:06:22;12.65;;;7.80;;
41667;SDS011;27356;50.920;5.350;2023-04-24T04:08:48;14.48;;;8.02;;
41667;SDS011;27356;50.920;5.350;2023-04-24T04:11:13;15.32;;;8.25;;
41667;SDS011;27356;50.920;5.350;2023-04-24T04:13:39;12.88;;;8.18;;
41667;SDS011;27356;50.920;5.350;2023-04-24T04:16:05;11.32;;;7.93;;
41667;SDS011;27356;50.920;5.350;2023-04-24T04:18:31;14.38;;;8.30;;
41667;SDS011;27356;50.920;5.350;2023-04-24T04:20:56;13.45;;;8.73;;
41667;SDS011;27356;50.920;5.350;2023-04-24T04:23:22;12.05;;;7.32;;
41667;SDS011;27356;50.920;5.350;2023-04-24T04:25:48;11.98;;;7.70;;
41667;SDS011;27356;50.920;5.350;2023-04-24T04:28:14;13.60;;;6.75;;
41667;SDS011;27356;50.920;5.350;2023-04-24T04:30:40;14.73;;;7.80;;
41667;SDS011;27356;50.920;5.350;2023-04-24T04:33:06;9.50;;;7.07;;
41667;SDS011;27356;50.920;5.350;2023-04-24T04:35:33;12.32;;;7.90;;
41667;SDS011;27356;50.920;5.350;2023-04-24T04:37:58;13.65;;;8.15;;
41667;SDS011;27356;50.920;5.350;2023-04-24T04:40:24;10.48;;;7.15;;
41667;SDS011;27356;50.920;5.350;2023-04-24T04:42:50;14.43;;;8.32;;
41667;SDS011;27356;50.920;5.350;2023-04-24T04:45:18;10.40;;;7.28;;
41667;SDS011;27356;50.920;5.350;2023-04-24T04:47:45;13.10;;;7.80;;
41667;SDS011;27356;50.920;5.350;2023-04-24T04:50:11;11.65;;;8.00;;
41667;SDS011;27356;50.920;5.350;2023-04-24T04:52:37;15.80;;;8.98;;
41667;SDS011;27356;50.920;5.350;2023-04-24T04:55:02;10.80;;;7.22;;
41667;SDS011;27356;50.920;5.350;2023-04-24T04:57:28;10.77;;;8.07;;
41667;SDS011;27356;50.920;5.350;2023-04-24T04:59:55;10.25;;;6.78;;
41667;SDS011;27356;50.920;5.350;2023-04-24T05:02:20;11.43;;;6.90;;
41667;SDS011;27356;50.920;5.350;2023-04-24T05:04:46;12.65;;;6.95;;
41667;SDS011;27356;50.920;5.350;2023-04-24T05:07:12;10.68;;;6.85;;
41667;SDS011;27356;50.920;5.350;2023-04-24T05:09:38;9.70;;;6.57;;
41667;SDS011;27356;50.920;5.350;2023-04-24T05:12:03;8.63;;;6.40;;
41667;SDS011;27356;50.920;5.350;2023-04-24T05:14:29;13.02;;;6.57;;
41667;SDS011;27356;50.920;5.350;2023-04-24T05:16:55;13.75;;;6.57;;
41667;SDS011;27356;50.920;5.350;2023-04-24T05:19:20;12.18;;;6.85;;
41667;SDS011;27356;50.920;5.350;2023-04-24T05:21:46;10.13;;;7.18;;
41667;SDS011;27356;50.920;5.350;2023-04-24T05:24:11;8.30;;;6.30;;
41667;SDS011;27356;50.920;5.350;2023-04-24T05:26:37;10.02;;;6.03;;
41667;SDS011;27356;50.920;5.350;2023-04-24T05:29:03;7.88;;;6.05;;
41667;SDS011;27356;50.920;5.350;2023-04-24T05:31:29;8.32;;;5.90;;
41667;SDS011;27356;50.920;5.350;2023-04-24T05:33:54;8.23;;;5.65;;
41667;SDS011;27356;50.920;5.350;2023-04-24T05:36:20;7.97;;;5.95;;
41667;SDS011;27356;50.920;5.350;2023-04-24T05:38:46;10.40;;;6.65;;
41667;SDS011;27356;50.920;5.350;2023-04-24T05:41:11;9.30;;;6.15;;
41667;SDS011;27356;50.920;5.350;2023-04-24T05:43:37;10.25;;;6.25;;
41667;SDS011;27356;50.920;5.350;2023-04-24T05:46:03;6.93;;;5.85;;
41667;SDS011;27356;50.920;5.350;2023-04-24T05:48:28;8.15;;;5.25;;
41667;SDS011;27356;50.920;5.350;2023-04-24T05:50:54;5.85;;;4.43;;
41667;SDS011;27356;50.920;5.350;2023-04-24T05:53:20;6.25;;;4.50;;
41667;SDS011;27356;50.920;5.350;2023-04-24T05:55:46;6.88;;;3.42;;
41667;SDS011;27356;50.920;5.350;2023-04-24T05:58:12;3.42;;;3.13;;
41667;SDS011;27356;50.920;5.350;2023-04-24T06:00:39;7.03;;;4.03;;
41667;SDS011;27356;50.920;5.350;2023-04-24T06:03:08;6.80;;;3.85;;
41667;SDS011;27356;50.920;5.350;2023-04-24T06:05:34;6.32;;;3.85;;
41667;SDS011;27356;50.920;5.350;2023-04-24T06:08:00;4.50;;;3.88;;
41667;SDS011;27356;50.920;5.350;2023-04-24T06:10:25;5.75;;;4.43;;
41667;SDS011;27356;50.920;5.350;2023-04-24T06:12:51;6.25;;;4.65;;
41667;SDS011;27356;50.920;5.350;2023-04-24T06:15:17;9.70;;;5.25;;
41667;SDS011;27356;50.920;5.350;2023-04-24T06:17:43;9.48;;;5.95;;
41667;SDS011;27356;50.920;5.350;2023-04-24T06:20:08;8.85;;;5.55;;
41667;SDS011;27356;50.920;5.350;2023-04-24T06:22:35;10.32;;;5.97;;
41667;SDS011;27356;50.920;5.350;2023-04-24T06:25:01;12.00;;;5.75;;
41667;SDS011;27356;50.920;5.350;2023-04-24T06:27:27;10.95;;;5.97;;
41667;SDS011;27356;50.920;5.350;2023-04-24T06:29:53;10.85;;;6.68;;
41667;SDS011;27356;50.920;5.350;2023-04-24T06:32:23;8.32;;;6.15;;
41667;SDS011;27356;50.920;5.350;2023-04-24T06:34:50;7.93;;;5.32;;
41667;SDS011;27356;50.920;5.350;2023-04-24T06:37:18;9.93;;;5.28;;
41667;SDS011;27356;50.920;5.350;2023-04-24T06:39:44;9.98;;;5.93;;
41667;SDS011;27356;50.920;5.350;2023-04-24T06:42:10;10.75;;;5.70;;
41667;SDS011;27356;50.920;5.350;2023-04-24T06:44:36;11.68;;;6.03;;
41667;SDS011;27356;50.920;5.350;2023-04-24T06:47:06;12.88;;;6.30;;
41667;SDS011;27356;50.920;5.350;2023-04-24T06:49:33;7.88;;;5.70;;
41667;SDS011;27356;50.920;5.350;2023-04-24T06:52:02;8.80;;;5.90;;
41667;SDS011;27356;50.920;5.350;2023-04-24T06:54:28;10.18;;;6.35;;
41667;SDS011;27356;50.920;5.350;2023-04-24T06:56:54;9.18;;;6.20;;
41667;SDS011;27356;50.920;5.350;2023-04-24T06:59:22;12.85;;;6.43;;
41667;SDS011;27356;50.920;5.350;2023-04-24T07:01:51;11.73;;;7.20;;
41667;SDS011;27356;50.920;5.350;2023-04-24T07:04:17;10.27;;;6.25;;
41667;SDS011;27356;50.920;5.350;2023-04-24T07:06:44;11.02;;;7.00;;
41667;SDS011;27356;50.920;5.350;2023-04-24T07:09:11;13.18;;;7.15;;
41667;SDS011;27356;50.920;5.350;2023-04-24T07:11:38;16.10;;;8.68;;
41667;SDS011;27356;50.920;5.350;2023-04-24T07:14:05;15.00;;;7.82;;
41667;SDS011;27356;50.920;5.350;2023-04-24T07:16:31;16.15;;;8.57;;
41667;SDS011;27356;50.920;5.350;2023-04-24T07:18:57;15.43;;;8.38;;
41667;SDS011;27356;50.920;5.350;2023-04-24T07:21:23;13.50;;;8.27;;
41667;SDS011;27356;50.920;5.350;2023-04-24T07:23:50;15.30;;;8.57;;
41667;SDS011;27356;50.920;5.350;2023-04-24T07:26:16;16.35;;;8.52;;
41667;SDS011;27356;50.920;5.350;2023-04-24T07:28:41;12.30;;;8.20;;
41667;SDS011;27356;50.920;5.350;2023-04-24T07:31:07;10.00;;;7.57;;
41667;SDS011;27356;50.920;5.350;2023-04-24T07:33:33;15.65;;;8.82;;
41667;SDS011;27356;50.920;5.350;2023-04-24T07:36:01;13.02;;;7.85;;
41667;SDS011;27356;50.920;5.350;2023-04-24T07:38:29;16.17;;;8.80;;
41667;SDS011;27356;50.920;5.350;2023-04-24T07:40:55;16.75;;;8.55;;
41667;SDS011;27356;50.920;5.350;2023-04-24T07:43:21;13.63;;;8.85;;
41667;SDS011;27356;50.920;5.350;2023-04-24T07:45:48;15.38;;;8.70;;
41667;SDS011;27356;50.920;5.350;2023-04-24T07:48:17;13.40;;;8.73;;
41667;SDS011;27356;50.920;5.350;2023-04-24T07:50:43;18.02;;;9.07;;
41667;SDS011;27356;50.920;5.350;2023-04-24T07:53:09;15.90;;;9.30;;
41667;SDS011;27356;50.920;5.350;2023-04-24T07:55:35;11.35;;;8.18;;
41667;SDS011;27356;50.920;5.350;2023-04-24T07:58:01;17.42;;;9.07;;
41667;SDS011;27356;50.920;5.350;2023-04-24T08:00:27;15.32;;;9.43;;
41667;SDS011;27356;50.920;5.350;2023-04-24T08:02:52;18.58;;;9.48;;
41667;SDS011;27356;50.920;5.350;2023-04-24T08:05:18;18.65;;;10.15;;
41667;SDS011;27356;50.920;5.350;2023-04-24T08:07:45;15.13;;;10.25;;
41667;SDS011;27356;50.920;5.350;2023-04-24T08:10:13;17.98;;;10.23;;
41667;SDS011;27356;50.920;5.350;2023-04-24T08:12:40;32.95;;;11.05;;
41667;SDS011;27356;50.920;5.350;2023-04-24T08:15:09;20.80;;;10.38;;
41667;SDS011;27356;50.920;5.350;2023-04-24T08:17:36;19.88;;;10.18;;
41667;SDS011;27356;50.920;5.350;2023-04-24T08:20:03;13.73;;;9.48;;
41667;SDS011;27356;50.920;5.350;2023-04-24T08:22:30;11.40;;;8.55;;
41667;SDS011;27356;50.920;5.350;2023-04-24T08:24:56;14.15;;;9.23;;
41667;SDS011;27356;50.920;5.350;2023-04-24T08:27:25;13.70;;;8.13;;
41667;SDS011;27356;50.920;5.350;2023-04-24T08:29:52;14.77;;;8.02;;
41667;SDS011;27356;50.920;5.350;2023-04-24T08:32:18;17.45;;;7.95;;
41667;SDS011;27356;50.920;5.350;2023-04-24T08:34:44;15.70;;;7.97;;
41667;SDS011;27356;50.920;5.350;2023-04-24T08:37:10;11.63;;;8.15;;
41667;SDS011;27356;50.920;5.350;2023-04-24T08:39:36;15.73;;;7.60;;
41667;SDS011;27356;50.920;5.350;2023-04-24T08:42:02;12.10;;;6.70;;
41667;SDS011;27356;50.920;5.350;2023-04-24T08:44:33;10.95;;;5.72;;
41667;SDS011;27356;50.920;5.350;2023-04-24T08:47:00;10.27;;;5.05;;
41667;SDS011;27356;50.920;5.350;2023-04-24T08:49:27;12.27;;;6.30;;
41667;SDS011;27356;50.920;5.350;2023-04-24T08:51:54;11.90;;;5.18;;
41667;SDS011;27356;50.920;5.350;2023-04-24T08:54:20;11.95;;;4.72;;
41667;SDS011;27356;50.920;5.350;2023-04-24T08:56:47;9.23;;;4.22;;
41667;SDS011;27356;50.920;5.350;2023-04-24T08:59:14;25.13;;;5.55;;
41667;SDS011;27356;50.920;5.350;2023-04-24T09:01:41;6.63;;;4.10;;
41667;SDS011;27356;50.920;5.350;2023-04-24T09:04:08;6.70;;;3.97;;
41667;SDS011;27356;50.920;5.350;2023-04-24T09:06:39;12.27;;;3.97;;
41667;SDS011;27356;50.920;5.350;2023-04-24T09:09:05;7.75;;;3.75;;
41667;SDS011;27356;50.920;5.350;2023-04-24T09:11:32;17.55;;;5.45;;
41667;SDS011;27356;50.920;5.350;2023-04-24T09:13:58;5.70;;;3.22;;
41667;SDS011;27356;50.920;5.350;2023-04-24T09:16:25;10.00;;;3.55;;
41667;SDS011;27356;50.920;5.350;2023-04-24T09:18:51;6.57;;;3.25;;
41667;SDS011;27356;50.920;5.350;2023-04-24T09:21:19;11.52;;;3.15;;
41667;SDS011;27356;50.920;5.350;2023-04-24T09:23:46;8.75;;;3.53;;
41667;SDS011;27356;50.920;5.350;2023-04-24T09:26:22;11.82;;;3.92;;
41667;SDS011;27356;50.920;5.350;2023-04-24T09:28:48;7.50;;;3.78;;
41667;SDS011;27356;50.920;5.350;2023-04-24T09:31:15;10.13;;;4.10;;
41667;SDS011;27356;50.920;5.350;2023-04-24T09:33:56;11.70;;;3.97;;
41667;SDS011;27356;50.920;5.350;2023-04-24T09:36:35;8.77;;;3.67;;
41667;SDS011;27356;50.920;5.350;2023-04-24T09:39:03;12.20;;;3.72;;
41667;SDS011;27356;50.920;5.350;2023-04-24T09:41:31;11.98;;;4.20;;
41667;SDS011;27356;50.920;5.350;2023-04-24T09:44:01;13.63;;;4.47;;
41667;SDS011;27356;50.920;5.350;2023-04-24T09:46:40;12.63;;;5.30;;
41667;SDS011;27356;50.920;5.350;2023-04-24T09:49:12;14.93;;;5.05;;
41667;SDS011;27356;50.920;5.350;2023-04-24T09:51:40;10.05;;;4.47;;
41667;SDS011;27356;50.920;5.350;2023-04-24T09:54:39;13.82;;;4.68;;
41667;SDS011;27356;50.920;5.350;2023-04-24T09:59:27;15.02;;;4.63;;
41667;SDS011;27356;50.920;5.350;2023-04-24T10:01:52;12.77;;;5.13;;
41667;SDS011;27356;50.920;5.350;2023-04-24T10:04:22;9.90;;;4.22;;
41667;SDS011;27356;50.920;5.350;2023-04-24T10:06:50;11.30;;;4.40;;
41667;SDS011;27356;50.920;5.350;2023-04-24T10:09:23;9.23;;;4.43;;
41667;SDS011;27356;50.920;5.350;2023-04-24T10:11:51;12.07;;;4.85;;
41667;SDS011;27356;50.920;5.350;2023-04-24T10:14:24;10.05;;;4.40;;
41667;SDS011;27356;50.920;5.350;2023-04-24T10:16:54;9.73;;;4.65;;
41667;SDS011;27356;50.920;5.350;2023-04-24T10:19:21;10.65;;;4.05;;
41667;SDS011;27356;50.920;5.350;2023-04-24T10:21:50;14.65;;;4.03;;
41667;SDS011;27356;50.920;5.350;2023-04-24T10:24:17;9.85;;;3.55;;
41667;SDS011;27356;50.920;5.350;2023-04-24T10:26:46;7.63;;;3.10;;
41667;SDS011;27356;50.920;5.350;2023-04-24T10:29:13;11.45;;;3.47;;
41667;SDS011;27356;50.920;5.350;2023-04-24T10:31:40;10.77;;;3.72;;
41667;SDS011;27356;50.920;5.350;2023-04-24T10:34:07;8.52;;;3.33;;
41667;SDS011;27356;50.920;5.350;2023-04-24T10:36:34;11.82;;;3.47;;
41667;SDS011;27356;50.920;5.350;2023-04-24T10:39:05;9.02;;;3.58;;
41667;SDS011;27356;50.920;5.350;2023-04-24T10:41:36;14.25;;;3.53;;
41667;SDS011;27356;50.920;5.350;2023-04-24T10:44:06;10.68;;;3.17;;
41667;SDS011;27356;50.920;5.350;2023-04-24T10:46:33;7.68;;;3.42;;
41667;SDS011;27356;50.920;5.350;2023-04-24T10:48:59;13.40;;;4.00;;
41667;SDS011;27356;50.920;5.350;2023-04-24T10:51:44;10.57;;;3.28;;
41667;SDS011;27356;50.920;5.350;2023-04-24T11:02:46;10.98;;;3.22;;
41667;SDS011;27356;50.920;5.350;2023-04-24T11:05:15;11.85;;;3.75;;
41667;SDS011;27356;50.920;5.350;2023-04-24T11:10:45;7.28;;;2.95;;
41667;SDS011;27356;50.920;5.350;2023-04-24T11:13:16;6.82;;;3.17;;
41667;SDS011;27356;50.920;5.350;2023-04-24T11:15:42;6.68;;;3.25;;
41667;SDS011;27356;50.920;5.350;2023-04-24T11:18:12;10.88;;;3.67;;
41667;SDS011;27356;50.920;5.350;2023-04-24T11:20:43;7.55;;;3.35;;
41667;SDS011;27356;50.920;5.350;2023-04-24T11:23:11;9.43;;;2.55;;
41667;SDS011;27356;50.920;5.350;2023-04-24T11:25:38;7.63;;;2.75;;
41667;SDS011;27356;50.920;5.350;2023-04-24T11:28:04;8.73;;;2.72;;
41667;SDS011;27356;50.920;5.350;2023-04-24T11:30:30;7.45;;;2.67;;
41667;SDS011;27356;50.920;5.350;2023-04-24T11:33:02;7.65;;;2.88;;
41667;SDS011;27356;50.920;5.350;2023-04-24T11:35:29;5.05;;;2.30;;
41667;SDS011;27356;50.920;5.350;2023-04-24T11:37:59;8.27;;;3.28;;
41667;SDS011;27356;50.920;5.350;2023-04-24T11:40:27;6.50;;;2.72;;
41667;SDS011;27356;50.920;5.350;2023-04-24T11:42:53;8.75;;;3.35;;
41667;SDS011;27356;50.920;5.350;2023-04-24T11:45:25;16.10;;;3.03;;
41667;SDS011;27356;50.920;5.350;2023-04-24T11:47:52;11.45;;;2.45;;
41667;SDS011;27356;50.920;5.350;2023-04-24T11:50:19;7.97;;;2.75;;
41667;SDS011;27356;50.920;5.350;2023-04-24T11:52:47;6.93;;;2.15;;
41667;SDS011;27356;50.920;5.350;2023-04-24T11:57:43;6.00;;;2.38;;
41667;SDS011;27356;50.920;5.350;2023-04-24T12:02:43;4.95;;;2.60;;
41667;SDS011;27356;50.920;5.350;2023-04-24T12:05:18;6.18;;;2.42;;
41667;SDS011;27356;50.920;5.350;2023-04-24T12:07:53;7.00;;;2.88;;
41667;SDS011;27356;50.920;5.350;2023-04-24T12:10:23;7.90;;;2.42;;
41667;SDS011;27356;50.920;5.350;2023-04-24T12:12:50;4.00;;;2.05;;
41667;SDS011;27356;50.920;5.350;2023-04-24T12:15:18;6.15;;;2.65;;
41667;SDS011;27356;50.920;5.350;2023-04-24T12:17:44;5.07;;;2.35;;
41667;SDS011;27356;50.920;5.350;2023-04-24T12:20:10;3.53;;;1.98;;
41667;SDS011;27356;50.920;5.350;2023-04-24T12:22:53;6.55;;;2.30;;
41667;SDS011;27356;50.920;5.350;2023-04-24T12:25:21;3.78;;;1.77;;
41667;SDS011;27356;50.920;5.350;2023-04-24T12:30:31;4.10;;;1.88;;
41667;SDS011;27356;50.920;5.350;2023-04-24T12:32:58;6.07;;;2.38;;
41667;SDS011;27356;50.920;5.350;2023-04-24T12:35:29;5.50;;;2.83;;
41667;SDS011;27356;50.920;5.350;2023-04-24T12:38:05;5.65;;;2.17;;
41667;SDS011;27356;50.920;5.350;2023-04-24T12:40:34;15.77;;;3.03;;
41667;SDS011;27356;50.920;5.350;2023-04-24T12:43:01;5.47;;;2.05;;
41667;SDS011;27356;50.920;5.350;2023-04-24T12:45:38;5.93;;;1.90;;
41667;SDS011;27356;50.920;5.350;2023-04-24T12:48:04;5.97;;;2.60;;
41667;SDS011;27356;50.920;5.350;2023-04-24T12:50:29;6.63;;;2.00;;
41667;SDS011;27356;50.920;5.350;2023-04-24T12:52:55;5.20;;;2.22;;
41667;SDS011;27356;50.920;5.350;2023-04-24T12:55:21;7.65;;;2.30;;
41667;SDS011;27356;50.920;5.350;2023-04-24T12:57:47;5.40;;;2.00;;
41667;SDS011;27356;50.920;5.350;2023-04-24T13:00:12;4.78;;;1.50;;
41667;SDS011;27356;50.920;5.350;2023-04-24T13:02:38;6.63;;;2.15;;
41667;SDS011;27356;50.920;5.350;2023-04-24T13:05:05;9.90;;;2.22;;
41667;SDS011;27356;50.920;5.350;2023-04-24T13:07:31;4.95;;;1.95;;
41667;SDS011;27356;50.920;5.350;2023-04-24T13:09:58;4.43;;;2.00;;
41667;SDS011;27356;50.920;5.350;2023-04-24T13:12:24;4.03;;;2.13;;
41667;SDS011;27356;50.920;5.350;2023-04-24T13:14:50;5.28;;;1.92;;
41667;SDS011;27356;50.920;5.350;2023-04-24T13:17:16;5.40;;;2.22;;
41667;SDS011;27356;50.920;5.350;2023-04-24T13:19:42;3.58;;;2.17;;
41667;SDS011;27356;50.920;5.350;2023-04-24T13:22:10;6.18;;;2.10;;
41667;SDS011;27356;50.920;5.350;2023-04-24T13:24:37;6.13;;;2.40;;
41667;SDS011;27356;50.920;5.350;2023-04-24T13:27:04;7.03;;;2.15;;
41667;SDS011;27356;50.920;5.350;2023-04-24T13:29:30;4.63;;;2.40;;
41667;SDS011;27356;50.920;5.350;2023-04-24T13:31:59;3.30;;;1.85;;
41667;SDS011;27356;50.920;5.350;2023-04-24T13:34:41;2.97;;;2.05;;
41667;SDS011;27356;50.920;5.350;2023-04-24T13:37:07;2.53;;;1.73;;
41667;SDS011;27356;50.920;5.350;2023-04-24T13:39:33;5.32;;;2.17;;
41667;SDS011;27356;50.920;5.350;2023-04-24T13:41:58;7.22;;;1.92;;
41667;SDS011;27356;50.920;5.350;2023-04-24T13:44:24;5.47;;;2.35;;
41667;SDS011;27356;50.920;5.350;2023-04-24T13:46:51;7.85;;;2.60;;
41667;SDS011;27356;50.920;5.350;2023-04-24T13:49:19;3.95;;;2.22;;
41667;SDS011;27356;50.920;5.350;2023-04-24T13:51:46;6.07;;;2.30;;
41667;SDS011;27356;50.920;5.350;2023-04-24T13:54:12;4.68;;;2.45;;
41667;SDS011;27356;50.920;5.350;2023-04-24T13:56:38;6.00;;;2.22;;
41667;SDS011;27356;50.920;5.350;2023-04-24T13:59:07;4.10;;;2.20;;
41667;SDS011;27356;50.920;5.350;2023-04-24T14:01:36;3.65;;;2.53;;
41667;SDS011;27356;50.920;5.350;2023-04-24T14:04:05;6.38;;;2.30;;
41667;SDS011;27356;50.920;5.350;2023-04-24T14:06:31;5.03;;;3.17;;
41667;SDS011;27356;50.920;5.350;2023-04-24T14:08:59;7.53;;;2.50;;
41667;SDS011;27356;50.920;5.350;2023-04-24T14:11:25;5.40;;;2.20;;
41667;SDS011;27356;50.920;5.350;2023-04-24T14:13:51;5.70;;;2.05;;
41667;SDS011;27356;50.920;5.350;2023-04-24T14:16:18;6.63;;;2.78;;
41667;SDS011;27356;50.920;5.350;2023-04-24T14:18:44;6.60;;;2.38;;
41667;SDS011;27356;50.920;5.350;2023-04-24T14:21:09;7.05;;;1.92;;
41667;SDS011;27356;50.920;5.350;2023-04-24T14:23:35;4.00;;;1.88;;
41667;SDS011;27356;50.920;5.350;2023-04-24T14:26:01;5.78;;;2.10;;
41667;SDS011;27356;50.920;5.350;2023-04-24T14:28:27;3.97;;;2.28;;
41667;SDS011;27356;50.920;5.350;2023-04-24T14:30:53;6.60;;;2.35;;
41667;SDS011;27356;50.920;5.350;2023-04-24T14:33:18;5.15;;;2.33;;
41667;SDS011;27356;50.920;5.350;2023-04-24T14:35:44;6.30;;;2.80;;
41667;SDS011;27356;50.920;5.350;2023-04-24T14:38:10;5.07;;;2.17;;
41667;SDS011;27356;50.920;5.350;2023-04-24T14:40:36;6.90;;;2.50;;
41667;SDS011;27356;50.920;5.350;2023-04-24T14:43:02;4.43;;;2.08;;
41667;SDS011;27356;50.920;5.350;2023-04-24T14:45:28;3.95;;;1.85;;
41667;SDS011;27356;50.920;5.350;2023-04-24T14:47:54;3.90;;;2.05;;
41667;SDS011;27356;50.920;5.350;2023-04-24T14:50:20;3.72;;;2.20;;
41667;SDS011;27356;50.920;5.350;2023-04-24T14:52:46;5.10;;;2.20;;
41667;SDS011;27356;50.920;5.350;2023-04-24T14:55:12;6.97;;;2.45;;
41667;SDS011;27356;50.920;5.350;2023-04-24T14:57:38;6.00;;;2.50;;
41667;SDS011;27356;50.920;5.350;2023-04-24T15:00:05;4.30;;;2.08;;